createdAt,value
2023-02-20T00:00:41.779Z,7.10
2023-02-20T00:03:09.499Z,7.10
2023-02-20T00:05:36.793Z,7.10
2023-02-20T00:08:04.189Z,7.20
2023-02-20T00:10:31.329Z,7.10
2023-02-20T00:12:58.539Z,7.20
2023-02-20T00:15:26.029Z,7.20
2023-02-20T00:17:53.435Z,7.20
2023-02-20T00:20:24.439Z,7.20
2023-02-20T00:22:53.058Z,7.10
2023-02-20T00:25:21.848Z,6.90
2023-02-20T00:27:49.007Z,6.90
2023-02-20T00:30:20.346Z,6.90
2023-02-20T00:32:49.571Z,6.90
2023-02-20T00:35:18.007Z,6.90
2023-02-20T00:37:47.331Z,7.00
2023-02-20T00:40:16.493Z,7.00
2023-02-20T00:42:44.116Z,7.00
2023-02-20T00:45:13.072Z,7.10
2023-02-20T00:47:40.401Z,7.20
2023-02-20T00:50:08.752Z,7.20
2023-02-20T00:52:36.520Z,7.30
2023-02-20T00:55:04.583Z,7.20
2023-02-20T00:57:31.877Z,7.20
2023-02-20T00:59:59.086Z,7.30
2023-02-20T01:02:26.296Z,7.40
2023-02-20T01:04:53.723Z,7.40
2023-02-20T01:07:21.129Z,7.50
2023-02-20T01:09:48.278Z,7.50
2023-02-20T01:12:16.680Z,7.50
2023-02-20T01:14:43.854Z,7.50
2023-02-20T01:17:14.031Z,7.50
2023-02-20T01:19:42.829Z,7.40
2023-02-20T01:22:10.121Z,7.40
2023-02-20T01:24:37.401Z,7.40
2023-02-20T01:27:04.586Z,7.40
2023-02-20T01:29:31.905Z,7.40
2023-02-20T01:32:00.145Z,7.40
2023-02-20T01:34:27.885Z,7.40
2023-02-20T01:36:56.753Z,7.40
2023-02-20T01:39:30.991Z,7.40
2023-02-20T01:42:03.991Z,7.40
2023-02-20T01:44:36.908Z,7.40
2023-02-20T01:47:09.315Z,7.40
2023-02-20T01:49:44.677Z,7.40
2023-02-20T01:52:26.118Z,7.40
2023-02-20T01:55:06.379Z,7.30
2023-02-20T01:57:37.380Z,7.40
2023-02-20T02:00:12.226Z,7.40
2023-02-20T02:02:50.039Z,7.40
2023-02-20T02:05:18.732Z,7.40
2023-02-20T02:07:45.969Z,7.40
2023-02-20T02:10:25.408Z,7.40
2023-02-20T02:12:54.797Z,7.40
2023-02-20T02:15:25.266Z,7.40
2023-02-20T02:18:21.552Z,7.40
2023-02-20T02:21:28.602Z,7.40
2023-02-20T02:24:37.765Z,7.40
2023-02-20T02:27:42.454Z,7.40
2023-02-20T02:30:49.592Z,7.50
2023-02-20T02:33:56.672Z,7.50
2023-02-20T02:36:50.150Z,7.60
2023-02-20T02:39:35.467Z,7.60
2023-02-20T02:42:17.897Z,7.50
2023-02-20T02:45:12.390Z,7.40
2023-02-20T02:47:59.382Z,7.30
2023-02-20T02:50:34.667Z,7.20
2023-02-20T02:53:04.750Z,7.20
2023-02-20T02:55:35.977Z,7.20
2023-02-20T02:58:04.558Z,7.20
2023-02-20T03:00:58.167Z,7.20
2023-02-20T03:03:30.241Z,7.20
2023-02-20T03:06:06.320Z,7.20
2023-02-20T03:08:50.489Z,7.20
2023-02-20T03:11:20.292Z,7.20
2023-02-20T03:14:30.422Z,7.20
2023-02-20T03:17:15.639Z,7.20
2023-02-20T03:19:52.768Z,7.20
2023-02-20T03:22:43.766Z,7.20
2023-02-20T03:25:28.519Z,7.20
2023-02-20T03:28:06.177Z,7.10
2023-02-20T03:30:47.085Z,7.10
2023-02-20T03:33:41.335Z,7.00
2023-02-20T03:36:32.794Z,7.00
2023-02-20T03:39:28.105Z,7.00
2023-02-20T03:42:19.831Z,7.00
2023-02-20T03:44:53.317Z,7.10
2023-02-20T03:47:26.337Z,7.10
2023-02-20T03:49:56.047Z,7.10
2023-02-20T03:52:24.039Z,7.10
2023-02-20T03:54:51.696Z,7.10
2023-02-20T03:57:24.567Z,7.00
2023-02-20T04:00:04.338Z,7.00
2023-02-20T04:02:45.313Z,7.10
2023-02-20T04:05:18.446Z,7.00
2023-02-20T04:08:05.639Z,7.10
2023-02-20T04:10:45.132Z,7.10
2023-02-20T04:13:14.995Z,7.10
2023-02-20T04:15:47.041Z,7.10
2023-02-20T04:18:18.493Z,7.00
2023-02-20T04:20:49.996Z,7.00
2023-02-20T04:23:43.546Z,6.90
2023-02-20T04:26:17.660Z,6.90
2023-02-20T04:28:48.175Z,6.70
2023-02-20T04:31:19.161Z,6.70
2023-02-20T04:33:48.018Z,6.60
2023-02-20T04:36:21.214Z,6.60
2023-02-20T04:38:50.340Z,6.60
2023-02-20T04:41:21.139Z,6.50
2023-02-20T04:43:49.389Z,6.50
2023-02-20T04:46:18.695Z,6.50
2023-02-20T04:48:45.928Z,6.50
2023-02-20T04:51:14.557Z,6.60
2023-02-20T04:53:42.316Z,6.50
2023-02-20T04:56:10.237Z,6.50
2023-02-20T04:58:47.461Z,6.50
2023-02-20T05:01:19.634Z,6.50
2023-02-20T05:03:46.847Z,6.50
2023-02-20T05:06:14.261Z,6.50
2023-02-20T05:08:41.588Z,6.50
2023-02-20T05:11:09.190Z,6.50
2023-02-20T05:13:36.488Z,6.50
2023-02-20T05:16:03.652Z,6.50
2023-02-20T05:18:31.520Z,6.50
2023-02-20T05:21:19.099Z,6.50
2023-02-20T05:23:47.642Z,6.60
2023-02-20T05:26:19.924Z,6.60
2023-02-20T05:28:47.479Z,6.60
2023-02-20T05:31:17.525Z,6.60
2023-02-20T05:33:45.141Z,6.60
2023-02-20T05:36:12.691Z,6.50
2023-02-20T05:38:41.862Z,6.60
2023-02-20T05:41:09.059Z,6.50
2023-02-20T05:43:36.263Z,6.50
2023-02-20T05:46:03.511Z,6.40
2023-02-20T05:48:30.789Z,6.40
2023-02-20T05:50:57.930Z,6.30
2023-02-20T05:53:28.657Z,6.30
2023-02-20T05:55:56.271Z,6.30
2023-02-20T05:58:24.119Z,6.30
2023-02-20T06:00:51.481Z,6.30
2023-02-20T06:03:19.049Z,6.20
2023-02-20T06:05:46.299Z,6.20
2023-02-20T06:08:13.583Z,6.20
2023-02-20T06:10:40.739Z,6.10
2023-02-20T06:13:07.969Z,5.90
2023-02-20T06:15:35.099Z,5.90
2023-02-20T06:18:02.401Z,5.80
2023-02-20T06:20:29.511Z,5.70
2023-02-20T06:22:57.601Z,5.70
2023-02-20T06:25:24.919Z,5.70
2023-02-20T06:27:52.142Z,5.60
2023-02-20T06:30:19.355Z,5.60
2023-02-20T06:32:46.681Z,5.60
2023-02-20T06:35:13.793Z,5.50
2023-02-20T06:37:40.965Z,5.50
2023-02-20T06:40:08.635Z,5.40
2023-02-20T06:42:35.846Z,5.40
2023-02-20T06:45:03.018Z,5.40
2023-02-20T06:47:30.266Z,5.30
2023-02-20T06:49:57.471Z,5.20
2023-02-20T06:52:24.724Z,5.20
2023-02-20T06:54:53.116Z,5.20
2023-02-20T06:57:20.797Z,5.30
2023-02-20T06:59:49.676Z,5.30
2023-02-20T07:02:18.092Z,5.30
2023-02-20T07:04:49.900Z,5.30
2023-02-20T07:07:17.259Z,5.30
2023-02-20T07:09:44.761Z,5.30
2023-02-20T07:12:12.327Z,5.30
2023-02-20T07:14:39.597Z,5.40
2023-02-20T07:17:06.840Z,5.40
2023-02-20T07:19:33.972Z,5.50
2023-02-20T07:22:01.184Z,5.50
2023-02-20T07:24:28.713Z,5.50
2023-02-20T07:29:21.892Z,5.50
2023-02-20T07:31:49.269Z,5.60
2023-02-20T07:34:16.515Z,5.70
2023-02-20T07:36:43.765Z,5.80
2023-02-20T07:39:13.057Z,5.90
2023-02-20T07:41:41.116Z,6.00
2023-02-20T07:44:28.286Z,6.00
2023-02-20T07:46:55.543Z,6.00
2023-02-20T07:49:22.645Z,6.10
2023-02-20T07:51:49.951Z,6.10
2023-02-20T07:54:17.174Z,6.20
2023-02-20T07:56:44.454Z,6.30
2023-02-20T07:59:11.736Z,6.40
2023-02-20T08:01:39.175Z,6.50
2023-02-20T08:04:06.345Z,6.60
2023-02-20T08:06:33.713Z,6.70
2023-02-20T08:09:00.884Z,6.80
2023-02-20T08:11:28.173Z,6.90
2023-02-20T08:13:55.743Z,6.90
2023-02-20T08:16:23.156Z,7.10
2023-02-20T08:18:50.379Z,7.20
2023-02-20T08:21:17.814Z,7.30
2023-02-20T08:23:45.084Z,7.50
2023-02-20T08:26:13.350Z,7.70
2023-02-20T08:28:40.897Z,7.90
2023-02-20T08:31:08.200Z,8.10
2023-02-20T08:33:35.395Z,8.30
2023-02-20T08:36:03.079Z,8.60
2023-02-20T08:38:36.291Z,8.80
2023-02-20T08:41:08.623Z,9.10
2023-02-20T08:43:37.600Z,9.40
2023-02-20T08:46:06.420Z,9.60
2023-02-20T08:48:34.056Z,9.90
2023-02-20T08:51:01.289Z,10.20
2023-02-20T08:53:28.504Z,10.30
2023-02-20T08:55:55.776Z,10.60
2023-02-20T08:58:25.467Z,10.90
2023-02-20T09:00:54.700Z,11.20
2023-02-20T09:03:22.701Z,11.50
2023-02-20T09:05:50.341Z,11.80
2023-02-20T09:08:17.555Z,11.90
2023-02-20T09:10:45.044Z,12.00
2023-02-20T09:13:12.838Z,12.30
2023-02-20T09:15:40.232Z,12.60
2023-02-20T09:18:11.341Z,12.90
2023-02-20T09:20:39.041Z,13.10
2023-02-20T09:23:07.069Z,13.50
2023-02-20T09:25:34.519Z,13.70
2023-02-20T09:28:01.943Z,13.70
2023-02-20T09:30:29.228Z,13.80
2023-02-20T09:32:56.475Z,13.90
2023-02-20T09:35:27.726Z,14.10
2023-02-20T09:37:55.385Z,14.30
2023-02-20T09:40:25.495Z,14.50
2023-02-20T09:43:32.574Z,14.50
2023-02-20T09:46:09.455Z,14.70
2023-02-20T09:49:06.720Z,15.00
2023-02-20T09:51:38.981Z,15.20
2023-02-20T09:54:30.097Z,15.50
2023-02-20T09:57:02.207Z,15.70
2023-02-20T09:59:37.630Z,15.60
2023-02-20T10:02:31.334Z,15.70
2023-02-20T10:05:10.244Z,15.90
2023-02-20T10:07:41.449Z,16.00
2023-02-20T10:10:31.041Z,16.20
2023-02-20T10:13:38.192Z,16.40
2023-02-20T10:16:30.221Z,16.50
2023-02-20T10:19:14.391Z,16.70
2023-02-20T10:22:00.707Z,16.70
2023-02-20T10:24:46.967Z,16.90
2023-02-20T10:27:27.686Z,17.00
2023-02-20T10:29:57.803Z,17.10
2023-02-20T10:32:36.468Z,17.20
2023-02-20T10:35:14.999Z,17.30
2023-02-20T10:37:48.166Z,17.40
2023-02-20T10:40:40.822Z,17.60
2023-02-20T10:43:38.193Z,17.70
2023-02-20T10:46:18.221Z,17.70
2023-02-20T10:48:47.638Z,17.90
2023-02-20T10:51:28.446Z,18.00
2023-02-20T10:54:07.651Z,18.00
2023-02-20T10:57:14.677Z,18.00
2023-02-20T10:59:59.413Z,18.10
2023-02-20T11:02:33.413Z,18.10
2023-02-20T11:05:09.511Z,18.10
2023-02-20T11:07:36.898Z,18.10
2023-02-20T11:10:05.121Z,18.20
2023-02-20T11:12:40.091Z,18.30
2023-02-20T11:15:14.603Z,18.20
2023-02-20T11:17:42.889Z,18.20
2023-02-20T11:20:47.611Z,18.10
2023-02-20T11:23:35.474Z,18.20
2023-02-20T11:26:26.088Z,18.30
2023-02-20T11:29:16.210Z,18.30
2023-02-20T11:31:45.161Z,18.40
2023-02-20T11:34:25.122Z,18.50
2023-02-20T11:36:55.072Z,18.60
2023-02-20T11:39:28.836Z,18.60
2023-02-20T11:42:17.487Z,18.50
2023-02-20T11:44:45.265Z,18.40
2023-02-20T11:47:27.189Z,18.40
2023-02-20T11:50:20.607Z,18.30
2023-02-20T11:53:17.726Z,18.40
2023-02-20T11:55:54.979Z,18.40
2023-02-20T11:58:28.304Z,18.50
2023-02-20T12:00:56.031Z,18.40
2023-02-20T12:03:35.165Z,18.50
2023-02-20T12:06:24.063Z,18.50
2023-02-20T12:08:56.614Z,18.60
2023-02-20T12:11:26.709Z,18.50
2023-02-20T12:13:57.308Z,18.60
2023-02-20T12:16:48.970Z,18.60
2023-02-20T12:19:56.008Z,18.60
2023-02-20T12:22:36.008Z,18.70
2023-02-20T12:25:25.320Z,18.70
2023-02-20T12:28:32.328Z,18.70
2023-02-20T12:31:28.080Z,18.80
2023-02-20T12:34:08.997Z,18.70
2023-02-20T12:36:54.431Z,18.70
2023-02-20T12:39:49.942Z,18.70
2023-02-20T12:42:43.379Z,18.70
2023-02-20T12:45:50.501Z,18.60
2023-02-20T12:48:47.750Z,18.70
2023-02-20T12:51:34.903Z,18.70
2023-02-20T12:54:23.773Z,18.80
2023-02-20T12:57:21.263Z,18.90
2023-02-20T12:59:58.440Z,18.80
2023-02-20T13:02:42.993Z,18.80
2023-02-20T13:05:17.175Z,18.80
2023-02-20T13:08:07.561Z,18.80
2023-02-20T13:10:45.464Z,18.90
2023-02-20T13:13:12.890Z,19.00
2023-02-20T13:16:06.886Z,19.00
2023-02-20T13:18:44.233Z,18.90
2023-02-20T13:21:17.872Z,19.00
2023-02-20T13:23:44.941Z,18.90
2023-02-20T13:26:35.659Z,18.90
2023-02-20T13:29:28.200Z,18.90
2023-02-20T13:32:00.176Z,18.90
2023-02-20T13:34:37.534Z,18.90
2023-02-20T13:37:25.541Z,18.90
2023-02-20T13:39:52.829Z,18.90
2023-02-20T13:42:40.139Z,18.90
2023-02-20T13:45:47.240Z,18.90
2023-02-20T13:48:39.654Z,18.90
2023-02-20T13:51:31.109Z,18.90
2023-02-20T13:54:22.334Z,18.80
2023-02-20T13:57:01.375Z,18.80
2023-02-20T13:59:29.221Z,18.70
2023-02-20T14:02:30.327Z,18.60
2023-02-20T14:05:04.836Z,18.50
2023-02-20T14:07:40.548Z,18.40
2023-02-20T14:10:29.310Z,18.30
2023-02-20T14:13:19.868Z,18.40
2023-02-20T14:15:58.965Z,18.30
2023-02-20T14:18:31.987Z,18.40
2023-02-20T14:21:23.025Z,18.40
2023-02-20T14:23:52.233Z,18.60
2023-02-20T14:26:26.350Z,18.70
2023-02-20T14:28:56.316Z,18.70
2023-02-20T14:31:32.437Z,18.70
2023-02-20T14:34:20.751Z,18.60
2023-02-20T14:37:07.871Z,18.60
2023-02-20T14:39:51.369Z,18.40
2023-02-20T14:42:24.679Z,18.40
2023-02-20T14:44:57.935Z,18.30
2023-02-20T14:47:25.234Z,18.30
2023-02-20T14:49:52.514Z,18.40
2023-02-20T14:52:22.893Z,18.50
2023-02-20T14:55:02.491Z,18.60
2023-02-20T14:57:31.019Z,18.70
2023-02-20T15:00:26.976Z,18.70
2023-02-20T15:02:56.635Z,18.80
2023-02-20T15:05:34.683Z,18.80
2023-02-20T15:08:23.467Z,18.80
2023-02-20T15:10:52.983Z,18.70
2023-02-20T15:13:29.870Z,18.80
2023-02-20T15:16:25.766Z,18.80
2023-02-20T15:18:53.386Z,18.80
2023-02-20T15:21:41.595Z,18.80
2023-02-20T15:24:36.750Z,18.80
2023-02-20T15:27:14.921Z,18.80
2023-02-20T15:29:43.652Z,18.70
2023-02-20T15:32:33.769Z,18.70
2023-02-20T15:35:01.032Z,18.70
2023-02-20T15:37:38.278Z,18.60
2023-02-20T15:40:28.711Z,18.60
2023-02-20T15:42:57.391Z,18.60
2023-02-20T15:45:30.432Z,18.60
2023-02-20T15:47:58.742Z,18.60
2023-02-20T15:50:29.033Z,18.60
2023-02-20T15:52:58.823Z,18.50
2023-02-20T15:55:27.313Z,18.40
2023-02-20T15:57:56.983Z,18.40
2023-02-20T16:00:30.722Z,18.40
2023-02-20T16:02:58.755Z,18.40
2023-02-20T16:05:26.353Z,18.30
2023-02-20T16:07:54.067Z,18.30
2023-02-20T16:10:24.770Z,18.30
2023-02-20T16:12:55.996Z,18.20
2023-02-20T16:15:25.450Z,18.20
2023-02-20T16:17:53.428Z,18.10
2023-02-20T16:20:29.227Z,18.10
2023-02-20T16:22:56.864Z,18.10
2023-02-20T16:25:24.884Z,18.00
2023-02-20T16:27:54.486Z,17.90
2023-02-20T16:30:33.801Z,17.80
2023-02-20T16:33:08.940Z,17.80
2023-02-20T16:35:36.194Z,17.70
2023-02-20T16:38:03.313Z,17.60
2023-02-20T16:40:30.603Z,17.50
2023-02-20T16:42:57.785Z,17.50
2023-02-20T16:45:25.023Z,17.40
2023-02-20T16:47:54.736Z,17.30
2023-02-20T16:50:26.172Z,17.20
2023-02-20T16:52:54.276Z,17.10
2023-02-20T16:55:28.466Z,17.00
2023-02-20T16:57:56.413Z,16.90
2023-02-20T17:00:27.594Z,16.80
2023-02-20T17:02:55.064Z,16.70
2023-02-20T17:05:27.933Z,16.70
2023-02-20T17:07:56.696Z,16.60
2023-02-20T17:10:24.343Z,16.50
2023-02-20T17:12:52.433Z,16.40
2023-02-20T17:15:22.025Z,16.30
2023-02-20T17:17:49.696Z,16.20
2023-02-20T17:20:20.183Z,16.10
2023-02-20T17:23:02.675Z,16.00
2023-02-20T17:25:33.212Z,15.90
2023-02-20T17:28:01.042Z,15.80
2023-02-20T17:30:28.350Z,15.70
2023-02-20T17:32:55.531Z,15.60
2023-02-20T17:35:22.814Z,15.50
2023-02-20T17:37:50.179Z,15.40
2023-02-20T17:40:17.941Z,15.30
2023-02-20T17:42:45.174Z,15.20
2023-02-20T17:45:12.633Z,15.10
2023-02-20T17:47:39.857Z,15.00
2023-02-20T17:50:07.566Z,14.90
2023-02-20T17:52:34.788Z,14.90
2023-02-20T17:55:01.933Z,14.80
2023-02-20T17:57:29.423Z,14.70
2023-02-20T17:59:56.916Z,14.70
2023-02-20T18:02:24.093Z,14.70
2023-02-20T18:04:51.750Z,14.70
2023-02-20T18:07:18.944Z,14.60
2023-02-20T18:09:46.242Z,14.50
2023-02-20T18:12:13.566Z,14.50
2023-02-20T18:14:40.810Z,14.40
2023-02-20T18:17:07.926Z,14.20
2023-02-20T18:19:35.236Z,14.10
2023-02-20T18:22:02.502Z,13.90
2023-02-20T18:24:33.580Z,13.90
2023-02-20T18:27:00.918Z,13.80
2023-02-20T18:29:29.922Z,13.80
2023-02-20T18:31:57.913Z,13.80
2023-02-20T18:34:27.443Z,13.70
2023-02-20T18:36:55.574Z,13.70
2023-02-20T18:39:23.182Z,13.70
2023-02-20T18:41:52.774Z,13.60
2023-02-20T18:44:20.553Z,13.60
2023-02-20T18:46:47.738Z,13.50
2023-02-20T18:49:15.292Z,13.50
2023-02-20T18:51:44.807Z,13.50
2023-02-20T18:54:19.666Z,13.40
2023-02-20T18:56:50.782Z,13.30
2023-02-20T18:59:19.097Z,13.20
2023-02-20T19:01:46.466Z,13.30
2023-02-20T19:04:15.201Z,13.20
2023-02-20T19:06:44.798Z,13.20
2023-02-20T19:09:16.640Z,13.30
2023-02-20T19:11:50.733Z,13.30
2023-02-20T19:14:18.518Z,13.30
2023-02-20T19:16:54.737Z,13.30
2023-02-20T19:19:24.972Z,13.30
2023-02-20T19:21:53.476Z,13.30
2023-02-20T19:24:21.485Z,13.20
2023-02-20T19:26:49.088Z,13.20
2023-02-20T19:29:16.167Z,13.10
2023-02-20T19:31:43.512Z,13.10
2023-02-20T19:34:10.844Z,13.00
2023-02-20T19:36:41.715Z,13.00
2023-02-20T19:39:09.846Z,12.90
2023-02-20T19:41:38.486Z,12.80
2023-02-20T19:44:07.415Z,12.80
2023-02-20T19:46:35.450Z,12.70
2023-02-20T19:49:04.499Z,12.70
2023-02-20T19:51:31.646Z,12.60
2023-02-20T19:54:01.189Z,12.60
2023-02-20T19:56:28.687Z,12.50
2023-02-20T19:58:55.836Z,12.50
2023-02-20T20:01:23.080Z,12.50
2023-02-20T20:03:50.526Z,12.40
2023-02-20T20:06:18.518Z,12.40
2023-02-20T20:09:09.992Z,12.40
2023-02-20T20:11:34.507Z,12.40
2023-02-20T20:14:01.699Z,12.40
2023-02-20T20:16:29.574Z,12.40
2023-02-20T20:18:56.825Z,12.30
2023-02-20T20:21:24.038Z,12.30
2023-02-20T20:23:54.041Z,12.30
2023-02-20T20:26:31.148Z,12.30
2023-02-20T20:28:58.785Z,12.40
2023-02-20T20:31:28.039Z,12.40
2023-02-20T20:33:55.787Z,12.40
2023-02-20T20:36:22.943Z,12.30
2023-02-20T20:38:50.271Z,12.10
2023-02-20T20:41:17.497Z,12.00
2023-02-20T20:43:46.593Z,12.00
2023-02-20T20:46:15.356Z,11.90
2023-02-20T20:48:45.176Z,11.90
2023-02-20T20:51:16.324Z,11.90
2023-02-20T20:53:45.225Z,11.70
2023-02-20T20:56:12.758Z,11.70
2023-02-20T20:58:40.253Z,11.60
2023-02-20T21:01:07.642Z,11.50
2023-02-20T21:03:35.034Z,11.30
2023-02-20T21:06:02.156Z,11.20
2023-02-20T21:08:30.756Z,11.20
2023-02-20T21:10:57.944Z,11.10
2023-02-20T21:13:25.223Z,11.10
2023-02-20T21:15:52.494Z,11.10
2023-02-20T21:18:19.712Z,11.20
2023-02-20T21:20:46.899Z,11.20
2023-02-20T21:23:14.209Z,11.30
2023-02-20T21:25:42.008Z,11.20
2023-02-20T21:28:09.271Z,11.20
2023-02-20T21:30:36.540Z,11.20
2023-02-20T21:33:03.923Z,11.20
2023-02-20T21:35:31.092Z,11.20
2023-02-20T21:37:58.373Z,11.30
2023-02-20T21:40:25.579Z,11.30
2023-02-20T21:43:12.853Z,11.30
2023-02-20T21:45:40.203Z,11.20
2023-02-20T21:48:07.304Z,11.10
2023-02-20T21:50:34.635Z,11.10
2023-02-20T21:53:02.255Z,11.00
2023-02-20T21:55:30.107Z,11.00
2023-02-20T21:57:57.634Z,11.00
2023-02-20T22:00:25.065Z,11.00
2023-02-20T22:02:52.216Z,11.00
2023-02-20T22:05:19.647Z,11.10
2023-02-20T22:08:06.651Z,11.20
2023-02-20T22:10:53.823Z,11.10
2023-02-20T22:13:40.947Z,11.10
2023-02-20T22:16:28.195Z,11.10
2023-02-20T22:19:15.962Z,11.10
2023-02-20T22:22:03.104Z,11.00
2023-02-20T22:24:50.251Z,11.00
2023-02-20T22:27:37.406Z,11.10
2023-02-20T22:30:26.238Z,11.00
2023-02-20T22:33:14.250Z,11.00
2023-02-20T22:36:01.359Z,11.00
2023-02-20T22:38:48.479Z,11.00
2023-02-20T22:41:40.332Z,11.00
2023-02-20T22:44:27.540Z,11.10
2023-02-20T22:47:14.658Z,11.10
2023-02-20T22:50:01.910Z,11.10
2023-02-20T22:52:49.046Z,11.10
2023-02-20T22:55:36.332Z,11.00
2023-02-20T22:58:23.483Z,11.00
2023-02-20T23:01:10.728Z,10.90
2023-02-20T23:04:01.341Z,10.90
2023-02-20T23:06:48.568Z,10.90
2023-02-20T23:09:35.798Z,10.90
2023-02-20T23:12:23.038Z,10.80
2023-02-20T23:15:10.153Z,10.80
2023-02-20T23:17:57.367Z,10.80
2023-02-20T23:20:44.556Z,10.80
2023-02-20T23:23:33.081Z,10.80
2023-02-20T23:26:20.476Z,10.80
2023-02-20T23:29:07.592Z,10.70
2023-02-20T23:32:00.930Z,10.70
2023-02-20T23:34:49.678Z,10.70
2023-02-20T23:37:36.850Z,10.60
2023-02-20T23:40:36.162Z,10.60
2023-02-20T23:43:25.538Z,10.60
2023-02-20T23:46:13.527Z,10.60
2023-02-20T23:49:00.621Z,10.60
2023-02-20T23:51:47.812Z,10.60
2023-02-20T23:54:34.935Z,10.60
2023-02-20T23:57:22.327Z,10.60
